createdAt,value
2022-11-27T00:00:06.508Z,493.8
2022-11-27T00:01:08.985Z,493.6
2022-11-27T00:02:11.770Z,494.1
2022-11-27T00:03:14.735Z,494
2022-11-27T00:04:17.891Z,494.1
2022-11-27T00:05:20.146Z,494.3
2022-11-27T00:06:22.428Z,494
2022-11-27T00:07:25.355Z,493.8
2022-11-27T00:08:27.587Z,494.4
2022-11-27T00:09:29.782Z,494
2022-11-27T00:10:31.988Z,494.1
2022-11-27T00:11:34.514Z,493.9
2022-11-27T00:12:36.472Z,493.9
2022-11-27T00:13:38.689Z,493.4
2022-11-27T00:14:40.953Z,493.6
2022-11-27T00:15:43.165Z,493.6
2022-11-27T00:16:45.430Z,493
2022-11-27T00:17:47.915Z,493.1
2022-11-27T00:18:50.394Z,493.1
2022-11-27T00:19:52.890Z,492.9
2022-11-27T00:20:55.385Z,493.2
2022-11-27T00:21:57.578Z,493
2022-11-27T00:22:59.800Z,492.6
2022-11-27T00:24:02.340Z,492.8
2022-11-27T00:25:04.535Z,493
2022-11-27T00:26:06.718Z,492.5
2022-11-27T00:27:09.182Z,492.6
2022-11-27T00:28:11.704Z,492.5
2022-11-27T00:29:14.187Z,492.6
2022-11-27T00:30:16.494Z,493
2022-11-27T00:31:19.533Z,492.7
2022-11-27T00:32:21.510Z,492.9
2022-11-27T00:33:24.004Z,493.1
2022-11-27T00:34:25.953Z,493.2
2022-11-27T00:35:28.157Z,493.6
2022-11-27T00:36:30.655Z,493.6
2022-11-27T00:37:33.149Z,493.7
2022-11-27T00:39:40.602Z,494.3
2022-11-27T00:40:42.805Z,494.7
2022-11-27T00:41:45.301Z,494.5
2022-11-27T00:42:47.509Z,494.9
2022-11-27T00:43:50.029Z,495.9
2022-11-27T00:44:52.234Z,495.9
2022-11-27T00:45:54.713Z,496.3
2022-11-27T00:46:57.355Z,495.7
2022-11-27T00:47:59.898Z,496.4
2022-11-27T00:49:02.387Z,496.5
2022-11-27T00:50:04.914Z,496.7
2022-11-27T00:51:06.824Z,497.2
2022-11-27T00:52:08.744Z,496.6
2022-11-27T00:53:11.225Z,496.3
2022-11-27T00:54:13.700Z,496.1
2022-11-27T00:55:15.616Z,495.9
2022-11-27T00:56:18.101Z,496.2
2022-11-27T00:57:20.304Z,496.3
2022-11-27T00:58:22.800Z,496.1
2022-11-27T00:59:25.150Z,496.5
2022-11-27T01:00:27.623Z,496.5
2022-11-27T01:01:30.712Z,496.6
2022-11-27T01:02:33.556Z,496.5
2022-11-27T01:03:36.044Z,496.6
2022-11-27T01:04:39.500Z,496.9
2022-11-27T01:05:42.163Z,497
2022-11-27T01:06:44.380Z,497.2
2022-11-27T01:07:46.976Z,497.2
2022-11-27T01:08:49.216Z,497.3
2022-11-27T01:09:51.730Z,497.4
2022-11-27T01:11:58.959Z,497.6
2022-11-27T01:13:01.476Z,497.5
2022-11-27T01:14:03.973Z,497.6
2022-11-27T01:15:06.470Z,497.5
2022-11-27T01:16:09.485Z,497.6
2022-11-27T01:17:12.066Z,497.5
2022-11-27T01:18:14.575Z,497.7
2022-11-27T01:19:16.777Z,498
2022-11-27T01:20:18.698Z,497.7
2022-11-27T01:21:20.914Z,497.5
2022-11-27T01:22:22.825Z,497.6
2022-11-27T01:23:25.306Z,497.4
2022-11-27T01:24:27.778Z,497.7
2022-11-27T01:25:30.260Z,497.6
2022-11-27T01:26:32.449Z,497.9
2022-11-27T01:27:34.936Z,498.3
2022-11-27T01:28:37.431Z,498.8
2022-11-27T01:29:39.916Z,499
2022-11-27T01:30:42.142Z,498.9
2022-11-27T01:31:44.985Z,498.6
2022-11-27T01:32:47.275Z,498.5
2022-11-27T01:33:49.501Z,498.2
2022-11-27T01:34:53.700Z,498.4
2022-11-27T01:35:58.650Z,498.3
2022-11-27T01:37:01.122Z,498.6
2022-11-27T01:38:03.448Z,498.8
2022-11-27T01:39:05.090Z,499
2022-11-27T01:40:07.313Z,499.2
2022-11-27T01:41:09.522Z,499
2022-11-27T01:42:12.012Z,499.1
2022-11-27T01:43:14.491Z,499.1
2022-11-27T01:44:16.676Z,498.9
2022-11-27T01:45:19.152Z,498.8
2022-11-27T01:46:22.068Z,499.7
2022-11-27T01:47:24.599Z,499.3
2022-11-27T01:48:27.146Z,499.1
2022-11-27T01:49:29.725Z,499.5
2022-11-27T01:50:31.659Z,499
2022-11-27T01:51:34.151Z,499.6
2022-11-27T01:52:36.641Z,499.1
2022-11-27T01:53:39.138Z,499.2
2022-11-27T01:54:43.190Z,499.1
2022-11-27T01:55:45.467Z,498.9
2022-11-27T01:56:47.969Z,499
2022-11-27T01:57:50.161Z,499.1
2022-11-27T01:58:52.371Z,498.9
2022-11-27T01:59:54.287Z,498.7
2022-11-27T02:00:56.776Z,499.3
2022-11-27T02:01:59.272Z,499
2022-11-27T02:03:02.304Z,499.2
2022-11-27T02:04:04.375Z,499.3
2022-11-27T02:05:06.619Z,499.6
2022-11-27T02:06:09.093Z,499.6
2022-11-27T02:07:11.912Z,499.7
2022-11-27T02:08:14.157Z,499.7
2022-11-27T02:09:16.650Z,500.2
2022-11-27T02:10:19.124Z,500.4
2022-11-27T02:11:21.603Z,500.3
2022-11-27T02:12:23.810Z,500
2022-11-27T02:13:26.035Z,500.2
2022-11-27T02:14:28.517Z,500
2022-11-27T02:15:30.737Z,500.4
2022-11-27T02:16:33.593Z,500.1
2022-11-27T02:17:36.093Z,500.4
2022-11-27T02:18:38.567Z,500.4
2022-11-27T02:19:40.752Z,500.9
2022-11-27T02:20:43.233Z,501.6
2022-11-27T02:21:45.717Z,501.5
2022-11-27T02:22:48.204Z,501.5
2022-11-27T02:23:50.732Z,501.6
2022-11-27T02:24:53.212Z,501.6
2022-11-27T02:25:55.136Z,501.9
2022-11-27T02:26:57.360Z,501.9
2022-11-27T02:27:59.839Z,502.1
2022-11-27T02:29:02.050Z,502.3
2022-11-27T02:30:04.543Z,502.6
2022-11-27T02:31:07.000Z,502.5
2022-11-27T02:32:09.520Z,502.4
2022-11-27T02:33:11.437Z,502.9
2022-11-27T02:34:13.927Z,502.8
2022-11-27T02:35:16.411Z,502.8
2022-11-27T02:36:18.889Z,502.9
2022-11-27T02:37:21.394Z,503.6
2022-11-27T02:38:23.595Z,503.9
2022-11-27T02:39:26.070Z,503.8
2022-11-27T02:40:28.279Z,503.7
2022-11-27T02:41:30.763Z,503.7
2022-11-27T02:42:33.827Z,504.1
2022-11-27T02:43:36.302Z,503.8
2022-11-27T02:44:40.120Z,503.8
2022-11-27T02:45:42.418Z,503.9
2022-11-27T02:46:45.314Z,504.3
2022-11-27T02:47:47.906Z,503.8
2022-11-27T02:48:50.123Z,504
2022-11-27T02:49:52.635Z,504.3
2022-11-27T02:50:54.841Z,504.4
2022-11-27T02:51:57.050Z,504.7
2022-11-27T02:52:59.230Z,504.8
2022-11-27T02:54:01.712Z,505.2
2022-11-27T02:55:03.632Z,505.3
2022-11-27T02:56:06.113Z,505.5
2022-11-27T02:57:08.031Z,505.7
2022-11-27T02:58:11.107Z,505.7
2022-11-27T02:59:13.319Z,505.8
2022-11-27T03:00:15.525Z,506.1
2022-11-27T03:01:18.271Z,505.6
2022-11-27T03:02:21.301Z,505.7
2022-11-27T03:03:23.346Z,506.3
2022-11-27T03:04:25.560Z,506.7
2022-11-27T03:05:27.197Z,506.8
2022-11-27T03:06:29.671Z,507.3
2022-11-27T03:07:32.246Z,507.2
2022-11-27T03:08:34.733Z,507.1
2022-11-27T03:09:37.207Z,507.5
2022-11-27T03:10:38.839Z,507.7
2022-11-27T03:11:41.319Z,507.5
2022-11-27T03:12:43.530Z,508
2022-11-27T03:13:46.589Z,507.5
2022-11-27T03:14:49.068Z,507.5
2022-11-27T03:15:51.789Z,507.7
2022-11-27T03:16:54.023Z,507.2
2022-11-27T03:17:56.104Z,507.7
2022-11-27T03:18:58.330Z,507.3
2022-11-27T03:20:00.810Z,507.6
2022-11-27T03:21:03.306Z,507.8
2022-11-27T03:22:05.498Z,507.4
2022-11-27T03:23:07.426Z,507.5
2022-11-27T03:24:09.903Z,507.7
2022-11-27T03:25:12.385Z,507.6
2022-11-27T03:26:14.574Z,507.8
2022-11-27T03:27:16.928Z,507.8
2022-11-27T03:28:18.850Z,508
2022-11-27T03:30:27.870Z,508.5
2022-11-27T03:31:30.691Z,508.6
2022-11-27T03:32:32.641Z,508.5
2022-11-27T03:33:35.115Z,509
2022-11-27T03:34:37.459Z,509.1
2022-11-27T03:35:39.464Z,509.8
2022-11-27T03:36:41.664Z,510.2
2022-11-27T03:37:44.148Z,509.5
2022-11-27T03:38:46.631Z,509.8
2022-11-27T03:39:49.109Z,509.2
2022-11-27T03:40:51.319Z,509.3
2022-11-27T03:41:53.800Z,509.7
2022-11-27T03:42:56.280Z,510.3
2022-11-27T03:43:58.491Z,509.8
2022-11-27T03:45:00.912Z,509.8
2022-11-27T03:46:03.681Z,510.3
2022-11-27T03:47:06.335Z,510
2022-11-27T03:48:08.576Z,510.5
2022-11-27T03:49:10.755Z,510.2
2022-11-27T03:50:12.960Z,510.1
2022-11-27T03:51:15.435Z,510.5
2022-11-27T03:52:17.631Z,510.6
2022-11-27T03:53:19.830Z,510.4
2022-11-27T03:54:22.047Z,510.6
2022-11-27T03:55:24.255Z,511.1
2022-11-27T03:56:26.189Z,511
2022-11-27T03:57:28.667Z,510.8
2022-11-27T03:58:31.140Z,511.5
2022-11-27T03:59:33.340Z,511.2
2022-11-27T04:00:36.050Z,511.1
2022-11-27T04:01:39.195Z,511.6
2022-11-27T04:02:41.401Z,511.2
2022-11-27T04:03:44.007Z,511.2
2022-11-27T04:04:46.502Z,511.6
2022-11-27T04:05:48.694Z,511.7
2022-11-27T04:06:51.089Z,511.4
2022-11-27T04:07:53.557Z,511.2
2022-11-27T04:08:55.776Z,510.9
2022-11-27T04:09:58.261Z,510.5
2022-11-27T04:11:00.727Z,510.9
2022-11-27T04:12:03.203Z,510.7
2022-11-27T04:13:05.399Z,510.7
2022-11-27T04:14:07.060Z,510.5
2022-11-27T04:15:09.246Z,510.4
2022-11-27T04:16:12.089Z,510.6
2022-11-27T04:17:14.995Z,510.1
2022-11-27T04:18:17.494Z,510
2022-11-27T04:19:19.974Z,510.1
2022-11-27T04:20:22.451Z,509.8
2022-11-27T04:21:24.936Z,509.9
2022-11-27T04:22:26.870Z,509.6
2022-11-27T04:23:29.352Z,510.2
2022-11-27T04:24:31.281Z,510.2
2022-11-27T04:25:33.500Z,510.3
2022-11-27T04:26:35.426Z,510.2
2022-11-27T04:27:37.642Z,510.3
2022-11-27T04:28:39.841Z,510.3
2022-11-27T04:29:42.326Z,510.4
2022-11-27T04:30:44.793Z,510.1
2022-11-27T04:31:47.725Z,510.2
2022-11-27T04:32:50.276Z,510.4
2022-11-27T04:33:52.747Z,510.3
2022-11-27T04:34:55.251Z,510.5
2022-11-27T04:35:57.751Z,510.3
2022-11-27T04:36:59.951Z,510.7
2022-11-27T04:38:02.163Z,510.8
2022-11-27T04:39:04.357Z,510.8
2022-11-27T04:40:06.562Z,511
2022-11-27T04:41:09.044Z,511
2022-11-27T04:42:11.244Z,510.6
2022-11-27T04:43:13.460Z,511.2
2022-11-27T04:44:15.661Z,510.8
2022-11-27T04:45:17.907Z,510.7
2022-11-27T04:46:20.194Z,510.5
2022-11-27T04:47:22.633Z,510.4
2022-11-27T04:48:25.471Z,510.4
2022-11-27T04:49:27.945Z,510.1
2022-11-27T04:50:30.422Z,509.9
2022-11-27T04:51:32.901Z,509.9
2022-11-27T04:52:35.395Z,510.1
2022-11-27T04:53:37.588Z,510.3
2022-11-27T04:54:41.779Z,510
2022-11-27T04:55:43.858Z,510
2022-11-27T04:56:46.349Z,509.8
2022-11-27T04:57:48.569Z,509.1
2022-11-27T04:58:51.059Z,509
2022-11-27T04:59:53.269Z,509.1
2022-11-27T05:00:56.266Z,509.1
2022-11-27T05:01:58.512Z,509.2
2022-11-27T05:04:06.575Z,509.9
2022-11-27T05:05:09.070Z,510.3
2022-11-27T05:06:11.304Z,509.8
2022-11-27T05:07:13.425Z,510.2
2022-11-27T05:08:15.949Z,510.1
2022-11-27T05:09:18.435Z,510.1
2022-11-27T05:10:20.649Z,510
2022-11-27T05:11:22.830Z,510.4
2022-11-27T05:12:25.313Z,510.3
2022-11-27T05:13:27.788Z,510.5
2022-11-27T05:14:30.390Z,510.5
2022-11-27T05:15:32.575Z,510.5
2022-11-27T05:16:35.444Z,510.2
2022-11-27T05:17:37.694Z,510.7
2022-11-27T05:18:40.176Z,510.7
2022-11-27T05:19:43.305Z,510.8
2022-11-27T05:20:45.776Z,510.8
2022-11-27T05:21:48.253Z,510.5
2022-11-27T05:22:50.730Z,510.8
2022-11-27T05:23:53.075Z,510.9
2022-11-27T05:24:55.560Z,510.5
2022-11-27T05:25:56.919Z,510.5
2022-11-27T05:26:59.442Z,510.4
2022-11-27T05:28:01.915Z,510.3
2022-11-27T05:29:03.873Z,510.1
2022-11-27T05:30:06.052Z,509.8
2022-11-27T05:31:08.938Z,510.3
2022-11-27T05:32:11.462Z,510.1
2022-11-27T05:33:13.948Z,510.2
2022-11-27T05:34:16.148Z,510.1
2022-11-27T05:35:19.225Z,510.3
2022-11-27T05:36:21.170Z,510.2
2022-11-27T05:37:23.377Z,510.2
2022-11-27T05:38:25.575Z,509.8
2022-11-27T05:39:28.069Z,509.8
2022-11-27T05:40:30.550Z,509.9
2022-11-27T05:41:32.755Z,510.2
2022-11-27T05:42:34.676Z,510.1
2022-11-27T05:43:36.875Z,509.9
2022-11-27T05:44:40.924Z,510.7
2022-11-27T05:45:43.240Z,510.6
2022-11-27T05:46:45.993Z,510.7
2022-11-27T05:47:48.510Z,510.9
2022-11-27T05:48:50.707Z,510.9
2022-11-27T05:49:52.910Z,511.1
2022-11-27T05:53:06.907Z,511.5
2022-11-27T05:54:09.420Z,511.5
2022-11-27T05:55:11.905Z,511.3
2022-11-27T05:56:14.377Z,511.4
2022-11-27T05:57:16.864Z,511.7
2022-11-27T05:58:19.056Z,511.6
2022-11-27T05:59:21.544Z,511.5
2022-11-27T06:00:24.018Z,511.7
2022-11-27T06:01:26.222Z,511.3
2022-11-27T06:03:34.078Z,510.9
2022-11-27T06:04:36.317Z,511.2
2022-11-27T06:05:38.526Z,511.3
2022-11-27T06:06:41.120Z,511.7
2022-11-27T06:07:44.048Z,511.6
2022-11-27T06:08:47.032Z,511.6
2022-11-27T06:09:49.249Z,511.8
2022-11-27T06:10:51.726Z,512.1
2022-11-27T06:11:54.225Z,511.8
2022-11-27T06:12:56.705Z,512.4
2022-11-27T06:13:58.910Z,512
2022-11-27T06:15:01.383Z,511.5
2022-11-27T06:16:04.073Z,512.1
2022-11-27T06:17:06.339Z,512.3
2022-11-27T06:18:08.813Z,512.5
2022-11-27T06:19:11.307Z,512.4
2022-11-27T06:20:13.778Z,512.1
2022-11-27T06:21:15.963Z,512.4
2022-11-27T06:22:18.280Z,512.7
2022-11-27T06:23:20.752Z,513
2022-11-27T06:24:23.676Z,512.9
2022-11-27T06:25:25.873Z,512.6
2022-11-27T06:26:28.360Z,512.4
2022-11-27T06:27:30.548Z,512.3
2022-11-27T06:28:32.747Z,512.2
2022-11-27T06:29:34.939Z,512.4
2022-11-27T06:30:37.187Z,512
2022-11-27T06:31:39.750Z,512
2022-11-27T06:32:42.246Z,512
2022-11-27T06:33:44.448Z,512.3
2022-11-27T06:34:46.922Z,512
2022-11-27T06:35:49.467Z,511.8
2022-11-27T06:36:51.955Z,511.9
2022-11-27T06:37:54.261Z,512.2
2022-11-27T06:38:56.735Z,512.5
2022-11-27T06:39:59.685Z,512.5
2022-11-27T06:41:01.610Z,512.7
2022-11-27T06:42:03.528Z,513
2022-11-27T06:43:06.009Z,512.7
2022-11-27T06:44:08.509Z,513
2022-11-27T06:45:10.998Z,513
2022-11-27T06:46:14.033Z,513
2022-11-27T06:47:16.570Z,513.2
2022-11-27T06:48:18.763Z,513.4
2022-11-27T06:49:20.700Z,513.6
2022-11-27T06:50:23.180Z,513.9
2022-11-27T06:51:25.698Z,513.6
2022-11-27T06:52:28.169Z,513.7
2022-11-27T06:53:30.489Z,514.2
2022-11-27T06:54:32.416Z,514
2022-11-27T06:55:35.381Z,513.8
2022-11-27T06:56:37.604Z,513.7
2022-11-27T06:57:40.190Z,513.5
2022-11-27T06:58:42.120Z,514.2
2022-11-27T06:59:44.039Z,513.9
2022-11-27T07:00:46.902Z,513.5
2022-11-27T07:01:49.453Z,513.8
2022-11-27T07:02:51.676Z,513.9
2022-11-27T07:03:53.867Z,513.8
2022-11-27T07:04:56.081Z,513.9
2022-11-27T07:05:58.278Z,514
2022-11-27T07:07:00.759Z,513.5
2022-11-27T07:08:03.672Z,513.8
2022-11-27T07:09:06.046Z,513.4
2022-11-27T07:10:08.532Z,513.3
2022-11-27T07:11:11.483Z,513.2
2022-11-27T07:12:13.691Z,513.5
2022-11-27T07:13:16.168Z,513.5
2022-11-27T07:14:18.076Z,513.7
2022-11-27T07:15:20.263Z,513.9
2022-11-27T07:16:23.198Z,513.9
2022-11-27T07:17:25.741Z,514.1
2022-11-27T07:18:28.243Z,514.4
2022-11-27T07:19:30.721Z,514.2
2022-11-27T07:20:32.930Z,514.2
2022-11-27T07:21:35.421Z,514.2
2022-11-27T07:22:37.924Z,514.1
2022-11-27T07:23:40.405Z,514.4
2022-11-27T07:24:43.769Z,514.7
2022-11-27T07:25:46.270Z,514.6
2022-11-27T07:26:49.034Z,514.8
2022-11-27T07:27:51.540Z,514.6
2022-11-27T07:28:54.017Z,514.6
2022-11-27T07:29:56.218Z,514.4
2022-11-27T07:30:58.448Z,514.5
2022-11-27T07:32:00.741Z,514.5
2022-11-27T07:33:02.695Z,514
2022-11-27T07:35:09.601Z,514.3
2022-11-27T07:36:11.827Z,514.5
2022-11-27T07:37:13.758Z,514.7
2022-11-27T07:38:15.691Z,514.7
2022-11-27T07:40:23.015Z,514.9
2022-11-27T07:43:38.930Z,515
2022-11-27T07:44:42.963Z,515.4
2022-11-27T07:45:45.857Z,514.8
2022-11-27T07:46:48.341Z,515.4
2022-11-27T07:47:50.839Z,515.1
2022-11-27T07:48:53.036Z,515.5
2022-11-27T07:49:55.238Z,515.9
2022-11-27T07:50:57.725Z,515.9
2022-11-27T07:52:00.201Z,516.6
2022-11-27T07:53:02.119Z,516.6
2022-11-27T07:54:04.315Z,516.6
2022-11-27T07:55:06.524Z,516.4
2022-11-27T07:56:09.112Z,516.8
2022-11-27T07:57:11.329Z,516.5
2022-11-27T07:58:13.825Z,515.9
2022-11-27T08:00:22.474Z,515.9
2022-11-27T08:01:25.145Z,516.2
2022-11-27T08:02:27.662Z,515.8
2022-11-27T08:03:29.586Z,516.2
2022-11-27T08:04:32.204Z,516
2022-11-27T08:05:34.420Z,516.1
2022-11-27T08:06:36.910Z,516.5
2022-11-27T08:07:39.931Z,516.5
2022-11-27T08:08:41.902Z,517.1
2022-11-27T08:09:43.851Z,517.7
2022-11-27T08:10:46.061Z,517.4
2022-11-27T08:11:48.673Z,517.6
2022-11-27T08:12:51.158Z,517.5
2022-11-27T08:13:53.361Z,517.2
2022-11-27T08:14:55.985Z,517.3
2022-11-27T08:15:59.125Z,517
2022-11-27T08:17:01.615Z,517.1
2022-11-27T08:18:03.856Z,517.2
2022-11-27T08:19:06.090Z,517.3
2022-11-27T08:20:08.575Z,516.8
2022-11-27T08:21:11.051Z,517.5
2022-11-27T08:22:13.341Z,517.4
2022-11-27T08:23:15.276Z,518.1
2022-11-27T08:24:17.479Z,518.1
2022-11-27T08:25:19.979Z,518.5
2022-11-27T08:26:22.448Z,518.2
2022-11-27T08:27:25.078Z,518.7
2022-11-27T08:28:27.290Z,518.6
2022-11-27T08:30:34.868Z,518.9
2022-11-27T08:31:38.084Z,518.6
2022-11-27T08:32:40.403Z,518.5
2022-11-27T08:33:42.900Z,518.4
2022-11-27T08:34:45.453Z,517.9
2022-11-27T08:35:48.086Z,518.5
2022-11-27T08:36:50.773Z,518.6
2022-11-27T08:37:53.250Z,518.6
2022-11-27T08:38:55.732Z,518.7
2022-11-27T08:39:57.670Z,518.6
2022-11-27T08:41:00.158Z,518.8
2022-11-27T08:42:02.675Z,519
2022-11-27T08:43:04.465Z,518.6
2022-11-27T08:45:11.937Z,518.3
2022-11-27T08:46:14.759Z,518.4
2022-11-27T08:47:17.699Z,517.7
2022-11-27T08:48:19.639Z,518.1
2022-11-27T08:49:21.550Z,517.9
2022-11-27T08:50:23.735Z,518
2022-11-27T08:51:25.939Z,518.4
2022-11-27T08:52:28.130Z,518.6
2022-11-27T08:53:30.067Z,518.3
2022-11-27T08:54:32.554Z,518.6
2022-11-27T08:55:34.762Z,518.6
2022-11-27T08:56:36.990Z,518.6
2022-11-27T08:57:39.185Z,518.8
2022-11-27T08:58:41.867Z,518.4
2022-11-27T08:59:44.350Z,518.9
2022-11-27T09:00:46.591Z,518.6
2022-11-27T09:01:49.226Z,518.7
2022-11-27T09:02:52.068Z,518.5
2022-11-27T09:03:54.960Z,518.7
2022-11-27T09:04:57.569Z,518.6
2022-11-27T09:05:59.487Z,519
2022-11-27T09:07:01.446Z,519.3
2022-11-27T09:08:03.484Z,518.8
2022-11-27T09:09:05.675Z,519.2
2022-11-27T09:10:07.901Z,519.5
2022-11-27T09:11:10.389Z,519.3
2022-11-27T09:12:12.869Z,519.3
2022-11-27T09:13:15.080Z,519.2
2022-11-27T09:14:17.691Z,519
2022-11-27T09:15:20.191Z,518.9
2022-11-27T09:16:23.110Z,518.8
2022-11-27T09:17:25.750Z,519
2022-11-27T09:18:28.578Z,518.9
2022-11-27T09:19:31.063Z,519.1
2022-11-27T09:20:33.563Z,519.1
2022-11-27T09:21:36.047Z,519
2022-11-27T09:22:38.545Z,519.3
2022-11-27T09:23:40.781Z,519.1
2022-11-27T09:24:44.472Z,519.2
2022-11-27T09:25:46.400Z,519.4
2022-11-27T09:26:48.606Z,519.4
2022-11-27T09:27:51.091Z,519.6
2022-11-27T09:28:53.586Z,519.7
2022-11-27T09:29:55.629Z,520
2022-11-27T09:30:57.902Z,520
2022-11-27T09:32:00.460Z,520.1
2022-11-27T09:33:03.108Z,519.9
2022-11-27T09:34:05.940Z,520.1
2022-11-27T09:35:08.410Z,520.6
2022-11-27T09:36:10.642Z,520.7
2022-11-27T09:37:12.846Z,520.7
2022-11-27T09:38:15.349Z,520.8
2022-11-27T09:39:17.709Z,521.1
2022-11-27T09:40:19.630Z,521.1
2022-11-27T09:41:22.109Z,520.9
2022-11-27T09:42:23.764Z,521.3
2022-11-27T09:43:25.958Z,521.3
2022-11-27T09:44:27.905Z,521.6
2022-11-27T09:46:35.217Z,521.7
2022-11-27T09:48:42.796Z,522.5
2022-11-27T09:49:45.619Z,522.7
2022-11-27T09:50:48.090Z,523.3
2022-11-27T09:51:50.000Z,523.4
2022-11-27T09:52:52.212Z,523.5
2022-11-27T09:53:54.418Z,523.6
2022-11-27T09:54:56.921Z,523.8
2022-11-27T09:55:58.577Z,523.6
2022-11-27T09:57:00.495Z,523.9
2022-11-27T09:58:02.973Z,524
2022-11-27T09:59:05.466Z,524
2022-11-27T10:00:07.667Z,524.2
2022-11-27T10:01:10.120Z,524.4
2022-11-27T10:02:13.506Z,524.7
2022-11-27T10:03:16.045Z,524.9
2022-11-27T10:04:18.401Z,525.1
2022-11-27T10:05:23.731Z,525.5
2022-11-27T10:06:26.333Z,525.3
2022-11-27T10:07:29.147Z,525.1
2022-11-27T10:08:31.680Z,525.3
2022-11-27T10:09:34.196Z,525.4
2022-11-27T10:10:36.678Z,525.5
2022-11-27T10:11:38.599Z,525.6
2022-11-27T10:12:40.781Z,525.3
2022-11-27T10:13:43.012Z,525.6
2022-11-27T10:14:45.677Z,525.9
2022-11-27T10:15:48.150Z,525.8
2022-11-27T10:16:50.853Z,526
2022-11-27T10:17:52.928Z,526.3
2022-11-27T10:18:55.404Z,526.1
2022-11-27T10:19:57.995Z,526.7
2022-11-27T10:21:00.848Z,527
2022-11-27T10:22:02.777Z,527.6
2022-11-27T10:23:05.279Z,527.6
2022-11-27T10:24:07.506Z,527.8
2022-11-27T10:25:09.719Z,527.9
2022-11-27T10:26:12.200Z,528.4
2022-11-27T10:27:14.132Z,528.3
2022-11-27T10:28:16.625Z,528.1
2022-11-27T10:29:18.836Z,528.6
2022-11-27T10:30:21.334Z,528.6
2022-11-27T10:31:24.168Z,528.6
2022-11-27T10:33:31.533Z,529.5
2022-11-27T10:34:33.744Z,529.1
2022-11-27T10:35:36.351Z,529.1
2022-11-27T10:36:38.897Z,529
2022-11-27T10:37:41.102Z,528.9
2022-11-27T10:38:43.690Z,529.1
2022-11-27T10:39:45.969Z,529.5
2022-11-27T10:40:48.193Z,528.8
2022-11-27T10:41:52.075Z,528.6
2022-11-27T10:42:54.309Z,528.8
2022-11-27T10:43:56.574Z,529.4
2022-11-27T10:44:58.785Z,529.8
2022-11-27T10:46:01.692Z,529.9
2022-11-27T10:47:03.926Z,530
2022-11-27T10:48:06.472Z,529.5
2022-11-27T10:49:09.092Z,529.7
2022-11-27T10:50:11.300Z,529.7
2022-11-27T10:51:13.372Z,529.8
2022-11-27T10:52:16.200Z,530.2
2022-11-27T10:53:18.686Z,530.1
2022-11-27T10:54:20.885Z,530
2022-11-27T10:55:23.122Z,529.5
2022-11-27T10:56:25.616Z,529.9
2022-11-27T10:57:27.808Z,529.6
2022-11-27T10:58:30.022Z,529.9
2022-11-27T11:00:37.498Z,530.7
2022-11-27T11:01:40.433Z,530.7
2022-11-27T11:02:43.427Z,531.1
2022-11-27T11:03:45.656Z,531.3
2022-11-27T11:06:58.224Z,531.4
2022-11-27T11:08:01.486Z,531.4
2022-11-27T11:09:03.734Z,531.2
2022-11-27T11:10:06.208Z,530.9
2022-11-27T11:11:08.409Z,531
2022-11-27T11:12:10.621Z,531.2
2022-11-27T11:13:12.560Z,530.5
2022-11-27T11:14:14.805Z,530.6
2022-11-27T11:15:17.010Z,530.7
2022-11-27T11:17:25.052Z,530.2
2022-11-27T11:18:27.631Z,530.1
2022-11-27T11:19:29.840Z,530.3
2022-11-27T11:20:32.429Z,530.1
2022-11-27T11:21:34.636Z,530.8
2022-11-27T11:22:37.236Z,530.7
2022-11-27T11:23:40.071Z,530.8
2022-11-27T11:24:43.759Z,530.7
2022-11-27T11:25:46.251Z,531.1
2022-11-27T11:26:48.192Z,531.2
2022-11-27T11:27:50.409Z,531.2
2022-11-27T11:28:52.325Z,531.6
2022-11-27T11:29:54.523Z,531.8
2022-11-27T11:30:56.998Z,532
2022-11-27T11:31:59.598Z,531.7
2022-11-27T11:33:02.144Z,531.6
2022-11-27T11:34:04.655Z,531.4
2022-11-27T11:35:06.592Z,531.5
2022-11-27T11:36:09.188Z,531.8
2022-11-27T11:37:11.706Z,531.5
2022-11-27T11:38:14.340Z,531.6
2022-11-27T11:39:16.898Z,531.6
2022-11-27T11:40:19.518Z,531.7
2022-11-27T11:41:21.745Z,532
2022-11-27T11:42:23.663Z,532
2022-11-27T11:43:26.145Z,532.2
2022-11-27T11:44:28.348Z,532.1
2022-11-27T11:46:36.062Z,532
2022-11-27T11:47:38.441Z,532.2
2022-11-27T11:48:40.649Z,532.1
2022-11-27T11:49:43.154Z,531.7
2022-11-27T11:50:45.635Z,531.8
2022-11-27T11:51:47.664Z,532
2022-11-27T11:52:49.595Z,531.8
2022-11-27T11:53:52.184Z,531.8
2022-11-27T11:54:54.578Z,531.9
2022-11-27T11:55:57.063Z,531.9
2022-11-27T11:56:59.279Z,531.9
2022-11-27T11:58:01.631Z,532.1
2022-11-27T11:59:03.570Z,532.3
2022-11-27T12:00:05.775Z,531.9
2022-11-27T12:02:13.597Z,531.9
2022-11-27T12:03:16.136Z,532.1
2022-11-27T12:04:18.945Z,532.4
2022-11-27T12:05:21.205Z,532.5
2022-11-27T12:06:23.417Z,532.9
2022-11-27T12:07:26.304Z,532.7
2022-11-27T12:08:28.389Z,532.9
2022-11-27T12:09:31.003Z,532.9
2022-11-27T12:10:33.565Z,533.2
2022-11-27T12:11:36.050Z,533.7
2022-11-27T12:12:38.557Z,533.7
2022-11-27T12:13:40.787Z,533.9
2022-11-27T12:14:44.494Z,533.9
2022-11-27T12:15:46.973Z,534.1
2022-11-27T12:16:49.891Z,534.3
2022-11-27T12:17:52.121Z,534.3
2022-11-27T12:18:54.333Z,534.8
2022-11-27T12:19:56.547Z,534.5
2022-11-27T12:20:59.027Z,534.3
2022-11-27T12:22:01.234Z,534.1
2022-11-27T12:23:03.551Z,534.3
2022-11-27T12:24:05.839Z,534.6
2022-11-27T12:25:08.445Z,534.6
2022-11-27T12:26:10.977Z,534.7
2022-11-27T12:27:13.192Z,535.2
2022-11-27T12:28:15.389Z,535.1
2022-11-27T12:29:17.601Z,534.9
2022-11-27T12:30:20.103Z,535.4
2022-11-27T12:31:22.270Z,535.6
2022-11-27T12:32:23.669Z,535.7
2022-11-27T12:33:25.874Z,536.1
2022-11-27T12:34:28.080Z,535.7
2022-11-27T12:35:30.565Z,536
2022-11-27T12:36:33.067Z,536.1
2022-11-27T12:37:34.990Z,535.9
2022-11-27T12:38:37.597Z,535.7
2022-11-27T12:39:40.094Z,536.1
2022-11-27T12:40:42.693Z,536.3
2022-11-27T12:41:45.231Z,535.7
2022-11-27T12:42:47.713Z,535.4
2022-11-27T12:43:50.193Z,536.3
2022-11-27T12:44:52.412Z,536.5
2022-11-27T12:45:55.427Z,536.2
2022-11-27T12:46:57.395Z,537
2022-11-27T12:47:59.333Z,537.1
2022-11-27T12:49:01.805Z,537.5
2022-11-27T12:50:04.305Z,537.8
2022-11-27T12:51:06.213Z,538
2022-11-27T12:52:08.434Z,538.2
2022-11-27T12:53:10.915Z,538.6
2022-11-27T12:54:13.520Z,538.5
2022-11-27T12:55:15.747Z,538.5
2022-11-27T12:56:18.355Z,538.8
2022-11-27T12:58:32.194Z,539
2022-11-27T12:59:33.827Z,538.6
2022-11-27T13:00:36.059Z,538.5
2022-11-27T13:01:38.999Z,538.8
2022-11-27T13:02:41.628Z,538.8
2022-11-27T13:03:43.658Z,539.1
2022-11-27T13:04:45.716Z,539.2
2022-11-27T13:05:48.196Z,539.9
2022-11-27T13:06:50.697Z,539.5
2022-11-27T13:07:53.551Z,539.7
2022-11-27T13:08:55.784Z,540.1
2022-11-27T13:09:58.124Z,540.2
2022-11-27T13:11:00.624Z,540.2
2022-11-27T13:12:03.035Z,540.6
2022-11-27T13:13:05.249Z,540.4
2022-11-27T13:14:07.718Z,540.6
2022-11-27T13:15:10.035Z,540
2022-11-27T13:16:12.881Z,540
2022-11-27T13:17:15.395Z,540
2022-11-27T13:18:17.601Z,539.8
2022-11-27T13:19:20.086Z,539.9
2022-11-27T13:20:22.565Z,539.7
2022-11-27T13:21:24.761Z,540
2022-11-27T13:22:26.985Z,540.6
2022-11-27T13:23:29.184Z,541
2022-11-27T13:24:31.393Z,540.9
2022-11-27T13:25:34.003Z,540.9
2022-11-27T13:26:36.492Z,541.4
2022-11-27T13:27:38.526Z,541.2
2022-11-27T13:28:40.723Z,541.4
2022-11-27T13:29:43.154Z,541.2
2022-11-27T13:30:45.500Z,541.1
2022-11-27T13:31:48.043Z,541.2
2022-11-27T13:32:50.575Z,541.4
2022-11-27T13:33:52.781Z,541.4
2022-11-27T13:34:55.277Z,541.5
2022-11-27T13:35:57.290Z,541.6
2022-11-27T13:36:59.768Z,541.9
2022-11-27T13:38:01.416Z,541.9
2022-11-27T13:39:03.657Z,542
2022-11-27T13:40:05.872Z,541.8
2022-11-27T13:41:08.485Z,542.7
2022-11-27T13:42:10.691Z,541.9
2022-11-27T13:43:13.031Z,542.4
2022-11-27T13:44:15.502Z,541.7
2022-11-27T13:45:17.670Z,542
2022-11-27T13:46:20.548Z,541.8
2022-11-27T13:47:23.072Z,541.9
2022-11-27T13:48:25.278Z,541.5
2022-11-27T13:49:27.767Z,541.6
2022-11-27T13:51:35.240Z,541.8
2022-11-27T13:52:37.454Z,542.3
2022-11-27T13:53:39.661Z,542
2022-11-27T13:54:43.091Z,542.1
2022-11-27T13:55:45.427Z,542.5